sensor_id;sensor_type;location;lat;lon;timestamp;temperature;humidity
9448;DHT22;4762;48.128;11.376;2024-02-26T00:00:24;1.10;75.00
9448;DHT22;4762;48.128;11.376;2024-02-26T00:02:27;1.10;75.00
9448;DHT22;4762;48.128;11.376;2024-02-26T00:04:29;1.10;75.20
9448;DHT22;4762;48.128;11.376;2024-02-26T00:06:31;1.10;75.70
9448;DHT22;4762;48.128;11.376;2024-02-26T00:08:33;1.00;75.60
9448;DHT22;4762;48.128;11.376;2024-02-26T00:10:36;0.70;75.60
9448;DHT22;4762;48.128;11.376;2024-02-26T00:12:39;0.90;76.60
9448;DHT22;4762;48.128;11.376;2024-02-26T00:14:41;0.90;75.80
9448;DHT22;4762;48.128;11.376;2024-02-26T00:16:43;0.70;76.10
9448;DHT22;4762;48.128;11.376;2024-02-26T00:18:46;0.60;75.80
9448;DHT22;4762;48.128;11.376;2024-02-26T00:20:48;0.70;76.30
9448;DHT22;4762;48.128;11.376;2024-02-26T00:22:50;0.80;76.40
9448;DHT22;4762;48.128;11.376;2024-02-26T00:24:53;0.70;77.10
9448;DHT22;4762;48.128;11.376;2024-02-26T00:26:55;0.80;77.30
9448;DHT22;4762;48.128;11.376;2024-02-26T00:28:57;0.60;77.60
9448;DHT22;4762;48.128;11.376;2024-02-26T00:31:00;0.50;77.70
9448;DHT22;4762;48.128;11.376;2024-02-26T00:33:08;0.80;77.70
9448;DHT22;4762;48.128;11.376;2024-02-26T00:35:12;0.60;77.70
9448;DHT22;4762;48.128;11.376;2024-02-26T00:37:15;0.80;77.50
9448;DHT22;4762;48.128;11.376;2024-02-26T00:39:17;0.60;77.10
9448;DHT22;4762;48.128;11.376;2024-02-26T00:41:20;0.60;77.00
9448;DHT22;4762;48.128;11.376;2024-02-26T00:43:22;0.80;76.90
9448;DHT22;4762;48.128;11.376;2024-02-26T00:45:25;0.50;76.70
9448;DHT22;4762;48.128;11.376;2024-02-26T00:47:27;0.60;77.40
9448;DHT22;4762;48.128;11.376;2024-02-26T00:49:29;0.50;76.80
9448;DHT22;4762;48.128;11.376;2024-02-26T00:51:32;0.70;77.20
9448;DHT22;4762;48.128;11.376;2024-02-26T00:53:34;0.40;77.60
9448;DHT22;4762;48.128;11.376;2024-02-26T00:55:37;0.70;78.20
9448;DHT22;4762;48.128;11.376;2024-02-26T00:57:39;0.50;78.60
9448;DHT22;4762;48.128;11.376;2024-02-26T00:59:41;0.40;78.70
9448;DHT22;4762;48.128;11.376;2024-02-26T01:01:44;0.10;78.70
9448;DHT22;4762;48.128;11.376;2024-02-26T01:03:46;0.30;78.00
9448;DHT22;4762;48.128;11.376;2024-02-26T01:05:48;0.20;78.20
9448;DHT22;4762;48.128;11.376;2024-02-26T01:07:50;0.10;79.00
9448;DHT22;4762;48.128;11.376;2024-02-26T01:09:53;0.20;78.40
9448;DHT22;4762;48.128;11.376;2024-02-26T01:11:55;0.10;78.00
9448;DHT22;4762;48.128;11.376;2024-02-26T01:13:57;0.10;78.40
9448;DHT22;4762;48.128;11.376;2024-02-26T01:15:59;0.10;78.90
9448;DHT22;4762;48.128;11.376;2024-02-26T01:18:02;0.10;78.80
9448;DHT22;4762;48.128;11.376;2024-02-26T01:20:05;0.00;78.80
9448;DHT22;4762;48.128;11.376;2024-02-26T01:22:07;0.00;79.00
9448;DHT22;4762;48.128;11.376;2024-02-26T01:24:09;0.00;79.30
9448;DHT22;4762;48.128;11.376;2024-02-26T01:26:12;0.00;79.00
9448;DHT22;4762;48.128;11.376;2024-02-26T01:28:14;-3276.70;78.90
9448;DHT22;4762;48.128;11.376;2024-02-26T01:30:17;0.10;78.60
9448;DHT22;4762;48.128;11.376;2024-02-26T01:32:19;0.20;78.40
9448;DHT22;4762;48.128;11.376;2024-02-26T01:34:21;0.20;78.50
9448;DHT22;4762;48.128;11.376;2024-02-26T01:36:23;0.40;78.90
9448;DHT22;4762;48.128;11.376;2024-02-26T01:38:26;0.20;78.40
9448;DHT22;4762;48.128;11.376;2024-02-26T01:40:28;0.30;77.80
9448;DHT22;4762;48.128;11.376;2024-02-26T01:42:31;0.40;77.90
9448;DHT22;4762;48.128;11.376;2024-02-26T01:44:33;0.30;78.30
9448;DHT22;4762;48.128;11.376;2024-02-26T01:46:35;0.30;78.60
9448;DHT22;4762;48.128;11.376;2024-02-26T01:48:40;0.20;78.40
9448;DHT22;4762;48.128;11.376;2024-02-26T01:50:41;0.30;78.40
9448;DHT22;4762;48.128;11.376;2024-02-26T01:52:44;0.00;78.40
9448;DHT22;4762;48.128;11.376;2024-02-26T01:54:46;-3276.70;78.80
9448;DHT22;4762;48.128;11.376;2024-02-26T01:56:48;0.00;79.00
9448;DHT22;4762;48.128;11.376;2024-02-26T01:58:50;0.00;78.80
9448;DHT22;4762;48.128;11.376;2024-02-26T02:00:52;-3276.70;78.90
9448;DHT22;4762;48.128;11.376;2024-02-26T02:02:55;-3276.60;79.00
9448;DHT22;4762;48.128;11.376;2024-02-26T02:04:58;-3276.60;79.00
9448;DHT22;4762;48.128;11.376;2024-02-26T02:07:00;-3276.40;79.20
9448;DHT22;4762;48.128;11.376;2024-02-26T02:09:02;-3276.50;79.40
9448;DHT22;4762;48.128;11.376;2024-02-26T02:11:05;-3276.40;79.90
9448;DHT22;4762;48.128;11.376;2024-02-26T02:13:07;-3276.40;80.10
9448;DHT22;4762;48.128;11.376;2024-02-26T02:15:09;-3276.60;80.50
9448;DHT22;4762;48.128;11.376;2024-02-26T02:17:12;-3276.60;80.40
9448;DHT22;4762;48.128;11.376;2024-02-26T02:19:14;-3276.70;80.60
9448;DHT22;4762;48.128;11.376;2024-02-26T02:21:16;-3276.60;80.50
9448;DHT22;4762;48.128;11.376;2024-02-26T02:23:18;-3276.50;79.90
9448;DHT22;4762;48.128;11.376;2024-02-26T02:25:21;-3276.30;80.10
9448;DHT22;4762;48.128;11.376;2024-02-26T02:27:23;-3276.40;80.10
9448;DHT22;4762;48.128;11.376;2024-02-26T02:29:25;-3276.50;80.50
9448;DHT22;4762;48.128;11.376;2024-02-26T02:31:27;-3276.60;80.10
9448;DHT22;4762;48.128;11.376;2024-02-26T02:33:30;-3276.60;79.90
9448;DHT22;4762;48.128;11.376;2024-02-26T02:35:32;-3276.60;79.90
9448;DHT22;4762;48.128;11.376;2024-02-26T02:37:34;-3276.70;80.00
9448;DHT22;4762;48.128;11.376;2024-02-26T02:39:37;-3276.50;80.00
9448;DHT22;4762;48.128;11.376;2024-02-26T02:41:40;-3276.50;80.00
9448;DHT22;4762;48.128;11.376;2024-02-26T02:43:42;-3276.70;80.30
9448;DHT22;4762;48.128;11.376;2024-02-26T02:45:45;-3276.60;80.50
9448;DHT22;4762;48.128;11.376;2024-02-26T02:47:47;0.00;80.60
9448;DHT22;4762;48.128;11.376;2024-02-26T02:49:49;-3276.60;80.60
9448;DHT22;4762;48.128;11.376;2024-02-26T02:51:51;-3276.60;80.80
9448;DHT22;4762;48.128;11.376;2024-02-26T02:53:54;-3276.60;80.60
9448;DHT22;4762;48.128;11.376;2024-02-26T02:55:56;-3276.60;80.60
9448;DHT22;4762;48.128;11.376;2024-02-26T02:57:58;-3276.50;80.40
9448;DHT22;4762;48.128;11.376;2024-02-26T03:00:01;-3276.40;80.30
9448;DHT22;4762;48.128;11.376;2024-02-26T03:02:03;-3276.50;80.30
9448;DHT22;4762;48.128;11.376;2024-02-26T03:04:05;-3276.40;80.40
9448;DHT22;4762;48.128;11.376;2024-02-26T03:06:08;-3276.40;80.60
9448;DHT22;4762;48.128;11.376;2024-02-26T03:08:10;-3276.50;80.90
9448;DHT22;4762;48.128;11.376;2024-02-26T03:10:12;-3276.40;80.80
9448;DHT22;4762;48.128;11.376;2024-02-26T03:12:14;-3276.60;80.80
9448;DHT22;4762;48.128;11.376;2024-02-26T03:14:17;-3276.40;80.70
9448;DHT22;4762;48.128;11.376;2024-02-26T03:16:19;-3276.50;80.60
9448;DHT22;4762;48.128;11.376;2024-02-26T03:18:21;-3276.70;80.60
9448;DHT22;4762;48.128;11.376;2024-02-26T03:20:23;0.00;80.00
9448;DHT22;4762;48.128;11.376;2024-02-26T03:22:25;0.00;79.80
9448;DHT22;4762;48.128;11.376;2024-02-26T03:24:28;0.00;79.80
9448;DHT22;4762;48.128;11.376;2024-02-26T03:26:30;0.00;79.60
9448;DHT22;4762;48.128;11.376;2024-02-26T03:28:33;-3276.70;79.70
9448;DHT22;4762;48.128;11.376;2024-02-26T03:30:35;0.00;79.70
9448;DHT22;4762;48.128;11.376;2024-02-26T03:32:37;0.00;79.60
9448;DHT22;4762;48.128;11.376;2024-02-26T03:34:40;0.00;79.80
9448;DHT22;4762;48.128;11.376;2024-02-26T03:36:42;0.00;79.60
9448;DHT22;4762;48.128;11.376;2024-02-26T03:38:44;0.00;79.70
9448;DHT22;4762;48.128;11.376;2024-02-26T03:40:46;0.10;79.80
9448;DHT22;4762;48.128;11.376;2024-02-26T03:42:49;0.10;79.90
9448;DHT22;4762;48.128;11.376;2024-02-26T03:44:51;0.00;80.10
9448;DHT22;4762;48.128;11.376;2024-02-26T03:46:53;0.30;79.90
9448;DHT22;4762;48.128;11.376;2024-02-26T03:48:56;0.10;79.70
9448;DHT22;4762;48.128;11.376;2024-02-26T03:50:58;0.30;79.90
9448;DHT22;4762;48.128;11.376;2024-02-26T03:53:00;0.10;79.80
9448;DHT22;4762;48.128;11.376;2024-02-26T03:55:02;0.20;79.50
9448;DHT22;4762;48.128;11.376;2024-02-26T03:57:04;0.30;79.60
9448;DHT22;4762;48.128;11.376;2024-02-26T03:59:07;0.20;79.70
9448;DHT22;4762;48.128;11.376;2024-02-26T04:01:09;0.20;79.90
9448;DHT22;4762;48.128;11.376;2024-02-26T04:03:11;0.30;79.90
9448;DHT22;4762;48.128;11.376;2024-02-26T04:05:14;0.10;80.00
9448;DHT22;4762;48.128;11.376;2024-02-26T04:07:16;0.10;79.90
9448;DHT22;4762;48.128;11.376;2024-02-26T04:09:18;0.20;79.90
9448;DHT22;4762;48.128;11.376;2024-02-26T04:11:21;0.00;80.00
9448;DHT22;4762;48.128;11.376;2024-02-26T04:13:23;0.00;80.10
9448;DHT22;4762;48.128;11.376;2024-02-26T04:15:25;0.10;80.40
9448;DHT22;4762;48.128;11.376;2024-02-26T04:17:27;-3276.70;80.50
9448;DHT22;4762;48.128;11.376;2024-02-26T04:19:29;-3276.60;81.00
9448;DHT22;4762;48.128;11.376;2024-02-26T04:21:32;-3276.70;81.70
9448;DHT22;4762;48.128;11.376;2024-02-26T04:23:34;-3276.60;81.80
9448;DHT22;4762;48.128;11.376;2024-02-26T04:25:36;-3276.40;81.90
9448;DHT22;4762;48.128;11.376;2024-02-26T04:27:38;-3276.30;82.10
9448;DHT22;4762;48.128;11.376;2024-02-26T04:29:41;-3276.20;81.90
9448;DHT22;4762;48.128;11.376;2024-02-26T04:31:43;-3276.30;81.90
9448;DHT22;4762;48.128;11.376;2024-02-26T04:33:45;-3276.30;81.60
9448;DHT22;4762;48.128;11.376;2024-02-26T04:35:47;-3276.20;82.00
9448;DHT22;4762;48.128;11.376;2024-02-26T04:37:50;-3276.20;82.00
9448;DHT22;4762;48.128;11.376;2024-02-26T04:39:52;-3276.20;82.20
9448;DHT22;4762;48.128;11.376;2024-02-26T04:41:54;-3276.30;82.50
9448;DHT22;4762;48.128;11.376;2024-02-26T04:43:56;-3276.40;82.50
9448;DHT22;4762;48.128;11.376;2024-02-26T04:45:58;-3276.40;82.40
9448;DHT22;4762;48.128;11.376;2024-02-26T04:48:01;-3276.40;82.20
9448;DHT22;4762;48.128;11.376;2024-02-26T04:50:03;-3276.30;82.30
9448;DHT22;4762;48.128;11.376;2024-02-26T04:52:06;-3276.30;83.10
9448;DHT22;4762;48.128;11.376;2024-02-26T04:54:08;-3276.40;82.70
9448;DHT22;4762;48.128;11.376;2024-02-26T04:56:10;-3276.60;82.70
9448;DHT22;4762;48.128;11.376;2024-02-26T04:58:12;-3276.40;82.70
9448;DHT22;4762;48.128;11.376;2024-02-26T05:00:15;-3276.40;82.40
9448;DHT22;4762;48.128;11.376;2024-02-26T05:02:17;-3276.60;82.70
9448;DHT22;4762;48.128;11.376;2024-02-26T05:04:19;-3276.40;82.60
9448;DHT22;4762;48.128;11.376;2024-02-26T05:06:22;-3276.40;82.40
9448;DHT22;4762;48.128;11.376;2024-02-26T05:08:24;-3276.60;82.30
9448;DHT22;4762;48.128;11.376;2024-02-26T05:10:27;-3276.50;82.40
9448;DHT22;4762;48.128;11.376;2024-02-26T05:12:29;-3276.40;82.60
9448;DHT22;4762;48.128;11.376;2024-02-26T05:14:32;-3276.50;82.50
9448;DHT22;4762;48.128;11.376;2024-02-26T05:16:34;-3276.50;82.40
9448;DHT22;4762;48.128;11.376;2024-02-26T05:18:36;-3276.40;82.40
9448;DHT22;4762;48.128;11.376;2024-02-26T05:20:38;-3276.30;82.30
9448;DHT22;4762;48.128;11.376;2024-02-26T05:22:41;-3276.40;82.40
9448;DHT22;4762;48.128;11.376;2024-02-26T05:24:43;-3276.50;82.50
9448;DHT22;4762;48.128;11.376;2024-02-26T05:26:45;-3276.50;82.80
9448;DHT22;4762;48.128;11.376;2024-02-26T05:28:48;-3276.50;82.70
9448;DHT22;4762;48.128;11.376;2024-02-26T05:30:50;-3276.50;82.50
9448;DHT22;4762;48.128;11.376;2024-02-26T05:32:52;0.00;82.40
9448;DHT22;4762;48.128;11.376;2024-02-26T05:34:54;0.10;82.40
9448;DHT22;4762;48.128;11.376;2024-02-26T05:36:56;-3276.70;82.50
9448;DHT22;4762;48.128;11.376;2024-02-26T05:39:00;-3276.70;82.30
9448;DHT22;4762;48.128;11.376;2024-02-26T05:41:02;0.00;82.30
9448;DHT22;4762;48.128;11.376;2024-02-26T05:43:04;0.30;82.30
9448;DHT22;4762;48.128;11.376;2024-02-26T05:45:07;0.10;82.10
9448;DHT22;4762;48.128;11.376;2024-02-26T05:47:10;0.20;81.70
9448;DHT22;4762;48.128;11.376;2024-02-26T05:49:12;0.20;81.60
9448;DHT22;4762;48.128;11.376;2024-02-26T05:51:14;0.20;81.70
9448;DHT22;4762;48.128;11.376;2024-02-26T05:53:17;0.40;81.60
9448;DHT22;4762;48.128;11.376;2024-02-26T05:55:19;0.50;81.00
9448;DHT22;4762;48.128;11.376;2024-02-26T05:57:21;0.40;81.00
9448;DHT22;4762;48.128;11.376;2024-02-26T05:59:24;0.60;80.80
9448;DHT22;4762;48.128;11.376;2024-02-26T06:01:26;0.50;80.90
9448;DHT22;4762;48.128;11.376;2024-02-26T06:03:28;0.60;81.20
9448;DHT22;4762;48.128;11.376;2024-02-26T06:05:30;0.60;81.00
9448;DHT22;4762;48.128;11.376;2024-02-26T06:07:32;0.80;80.80
9448;DHT22;4762;48.128;11.376;2024-02-26T06:09:35;0.80;80.60
9448;DHT22;4762;48.128;11.376;2024-02-26T06:11:37;0.80;80.30
9448;DHT22;4762;48.128;11.376;2024-02-26T06:13:39;0.90;80.00
9448;DHT22;4762;48.128;11.376;2024-02-26T06:15:42;0.90;80.10
9448;DHT22;4762;48.128;11.376;2024-02-26T06:17:44;1.20;80.20
9448;DHT22;4762;48.128;11.376;2024-02-26T06:19:46;1.10;80.70
9448;DHT22;4762;48.128;11.376;2024-02-26T06:21:49;1.20;80.50
9448;DHT22;4762;48.128;11.376;2024-02-26T06:23:51;1.00;79.60
9448;DHT22;4762;48.128;11.376;2024-02-26T06:25:53;1.40;79.80
9448;DHT22;4762;48.128;11.376;2024-02-26T06:27:55;1.40;79.20
9448;DHT22;4762;48.128;11.376;2024-02-26T06:29:57;1.50;78.80
9448;DHT22;4762;48.128;11.376;2024-02-26T06:32:00;1.30;78.40
9448;DHT22;4762;48.128;11.376;2024-02-26T06:34:02;1.60;78.80
9448;DHT22;4762;48.128;11.376;2024-02-26T06:36:04;1.60;79.20
9448;DHT22;4762;48.128;11.376;2024-02-26T06:38:07;1.80;79.10
9448;DHT22;4762;48.128;11.376;2024-02-26T06:40:09;2.10;79.30
9448;DHT22;4762;48.128;11.376;2024-02-26T06:42:12;2.00;78.80
9448;DHT22;4762;48.128;11.376;2024-02-26T06:44:14;2.10;77.80
9448;DHT22;4762;48.128;11.376;2024-02-26T06:46:16;2.40;78.20
9448;DHT22;4762;48.128;11.376;2024-02-26T06:48:20;2.10;77.80
9448;DHT22;4762;48.128;11.376;2024-02-26T06:50:24;2.40;77.00
9448;DHT22;4762;48.128;11.376;2024-02-26T06:52:26;2.40;76.40
9448;DHT22;4762;48.128;11.376;2024-02-26T06:54:28;2.30;77.10
9448;DHT22;4762;48.128;11.376;2024-02-26T06:56:31;2.20;77.20
9448;DHT22;4762;48.128;11.376;2024-02-26T06:58:33;2.20;77.50
9448;DHT22;4762;48.128;11.376;2024-02-26T07:00:36;2.40;78.20
9448;DHT22;4762;48.128;11.376;2024-02-26T07:02:40;2.50;77.30
9448;DHT22;4762;48.128;11.376;2024-02-26T07:04:42;2.50;77.20
9448;DHT22;4762;48.128;11.376;2024-02-26T07:06:45;2.50;76.20
9448;DHT22;4762;48.128;11.376;2024-02-26T07:08:47;2.70;76.20
9448;DHT22;4762;48.128;11.376;2024-02-26T07:10:49;2.80;75.40
9448;DHT22;4762;48.128;11.376;2024-02-26T07:12:51;2.70;76.00
9448;DHT22;4762;48.128;11.376;2024-02-26T07:14:54;2.80;76.10
9448;DHT22;4762;48.128;11.376;2024-02-26T07:16:56;3.00;73.90
9448;DHT22;4762;48.128;11.376;2024-02-26T07:18:58;3.20;75.10
9448;DHT22;4762;48.128;11.376;2024-02-26T07:21:02;3.40;74.00
9448;DHT22;4762;48.128;11.376;2024-02-26T07:23:04;3.60;72.60
9448;DHT22;4762;48.128;11.376;2024-02-26T07:25:06;3.80;72.40
9448;DHT22;4762;48.128;11.376;2024-02-26T07:27:09;3.60;72.50
9448;DHT22;4762;48.128;11.376;2024-02-26T07:29:11;3.60;72.10
9448;DHT22;4762;48.128;11.376;2024-02-26T07:31:13;3.40;72.40
9448;DHT22;4762;48.128;11.376;2024-02-26T07:33:15;3.80;72.40
9448;DHT22;4762;48.128;11.376;2024-02-26T07:35:18;3.70;72.00
9448;DHT22;4762;48.128;11.376;2024-02-26T07:37:20;3.40;72.70
9448;DHT22;4762;48.128;11.376;2024-02-26T07:39:23;3.40;72.40
9448;DHT22;4762;48.128;11.376;2024-02-26T07:41:25;3.50;73.50
9448;DHT22;4762;48.128;11.376;2024-02-26T07:43:28;3.50;74.80
9448;DHT22;4762;48.128;11.376;2024-02-26T07:45:31;3.40;73.40
9448;DHT22;4762;48.128;11.376;2024-02-26T07:47:34;3.50;73.50
9448;DHT22;4762;48.128;11.376;2024-02-26T07:49:36;3.80;72.90
9448;DHT22;4762;48.128;11.376;2024-02-26T07:51:39;3.60;72.50
9448;DHT22;4762;48.128;11.376;2024-02-26T07:53:43;4.10;71.80
9448;DHT22;4762;48.128;11.376;2024-02-26T07:55:45;3.90;70.80
9448;DHT22;4762;48.128;11.376;2024-02-26T07:57:48;3.90;72.10
9448;DHT22;4762;48.128;11.376;2024-02-26T07:59:50;4.10;71.20
9448;DHT22;4762;48.128;11.376;2024-02-26T08:01:52;4.00;71.50
9448;DHT22;4762;48.128;11.376;2024-02-26T08:03:55;4.30;71.10
9448;DHT22;4762;48.128;11.376;2024-02-26T08:05:58;4.80;71.20
9448;DHT22;4762;48.128;11.376;2024-02-26T08:08:00;4.80;69.30
9448;DHT22;4762;48.128;11.376;2024-02-26T08:10:02;5.00;68.10
9448;DHT22;4762;48.128;11.376;2024-02-26T08:12:05;5.00;65.50
9448;DHT22;4762;48.128;11.376;2024-02-26T08:14:07;4.70;67.70
9448;DHT22;4762;48.128;11.376;2024-02-26T08:16:10;4.60;67.90
9448;DHT22;4762;48.128;11.376;2024-02-26T08:18:12;5.10;67.80
9448;DHT22;4762;48.128;11.376;2024-02-26T08:20:14;5.20;66.10
9448;DHT22;4762;48.128;11.376;2024-02-26T08:22:17;5.10;66.10
9448;DHT22;4762;48.128;11.376;2024-02-26T08:24:19;5.10;67.20
9448;DHT22;4762;48.128;11.376;2024-02-26T08:26:21;5.00;67.60
9448;DHT22;4762;48.128;11.376;2024-02-26T08:28:23;5.30;67.60
9448;DHT22;4762;48.128;11.376;2024-02-26T08:30:26;5.30;67.20
9448;DHT22;4762;48.128;11.376;2024-02-26T08:32:29;5.50;67.40
9448;DHT22;4762;48.128;11.376;2024-02-26T08:34:31;5.40;66.70
9448;DHT22;4762;48.128;11.376;2024-02-26T08:36:33;5.60;65.80
9448;DHT22;4762;48.128;11.376;2024-02-26T08:38:35;5.70;65.90
9448;DHT22;4762;48.128;11.376;2024-02-26T08:40:38;5.50;66.40
9448;DHT22;4762;48.128;11.376;2024-02-26T08:42:40;5.80;66.20
9448;DHT22;4762;48.128;11.376;2024-02-26T08:44:42;5.60;66.70
9448;DHT22;4762;48.128;11.376;2024-02-26T08:46:44;5.60;66.20
9448;DHT22;4762;48.128;11.376;2024-02-26T08:48:46;6.00;66.00
9448;DHT22;4762;48.128;11.376;2024-02-26T08:50:48;6.30;65.40
9448;DHT22;4762;48.128;11.376;2024-02-26T08:52:52;6.10;65.50
9448;DHT22;4762;48.128;11.376;2024-02-26T08:54:54;5.80;65.50
9448;DHT22;4762;48.128;11.376;2024-02-26T08:56:56;6.20;66.70
9448;DHT22;4762;48.128;11.376;2024-02-26T08:58:59;6.30;65.60
9448;DHT22;4762;48.128;11.376;2024-02-26T09:01:01;6.50;65.30
9448;DHT22;4762;48.128;11.376;2024-02-26T09:03:04;6.70;64.70
9448;DHT22;4762;48.128;11.376;2024-02-26T09:05:06;6.30;64.70
9448;DHT22;4762;48.128;11.376;2024-02-26T09:07:09;6.20;65.80
9448;DHT22;4762;48.128;11.376;2024-02-26T09:09:11;6.10;65.70
9448;DHT22;4762;48.128;11.376;2024-02-26T09:11:14;6.50;64.70
9448;DHT22;4762;48.128;11.376;2024-02-26T09:13:16;6.40;64.50
9448;DHT22;4762;48.128;11.376;2024-02-26T09:15:18;6.50;65.10
9448;DHT22;4762;48.128;11.376;2024-02-26T09:17:20;6.70;64.40
9448;DHT22;4762;48.128;11.376;2024-02-26T09:19:23;7.00;64.10
9448;DHT22;4762;48.128;11.376;2024-02-26T09:21:25;7.40;62.60
9448;DHT22;4762;48.128;11.376;2024-02-26T09:23:27;7.80;62.70
9448;DHT22;4762;48.128;11.376;2024-02-26T09:25:29;8.10;61.00
9448;DHT22;4762;48.128;11.376;2024-02-26T09:27:31;8.30;60.80
9448;DHT22;4762;48.128;11.376;2024-02-26T09:29:35;8.30;60.40
9448;DHT22;4762;48.128;11.376;2024-02-26T09:31:36;8.70;60.00
9448;DHT22;4762;48.128;11.376;2024-02-26T09:33:39;8.80;59.50
9448;DHT22;4762;48.128;11.376;2024-02-26T09:35:41;9.00;59.50
9448;DHT22;4762;48.128;11.376;2024-02-26T09:37:43;9.10;58.90
9448;DHT22;4762;48.128;11.376;2024-02-26T09:39:45;9.40;57.80
9448;DHT22;4762;48.128;11.376;2024-02-26T09:41:48;9.20;56.60
9448;DHT22;4762;48.128;11.376;2024-02-26T09:43:51;9.40;55.60
9448;DHT22;4762;48.128;11.376;2024-02-26T09:45:54;9.50;56.20
9448;DHT22;4762;48.128;11.376;2024-02-26T09:47:56;9.60;56.20
9448;DHT22;4762;48.128;11.376;2024-02-26T09:49:58;10.00;55.60
9448;DHT22;4762;48.128;11.376;2024-02-26T09:52:00;9.90;54.90
9448;DHT22;4762;48.128;11.376;2024-02-26T09:54:02;9.60;54.90
9448;DHT22;4762;48.128;11.376;2024-02-26T09:56:06;10.00;53.70
9448;DHT22;4762;48.128;11.376;2024-02-26T09:58:07;10.10;53.10
9448;DHT22;4762;48.128;11.376;2024-02-26T10:00:12;10.30;53.00
9448;DHT22;4762;48.128;11.376;2024-02-26T10:02:13;10.50;51.90
9448;DHT22;4762;48.128;11.376;2024-02-26T10:04:15;10.70;51.90
9448;DHT22;4762;48.128;11.376;2024-02-26T10:06:18;10.90;51.30
9448;DHT22;4762;48.128;11.376;2024-02-26T10:08:20;11.40;50.80
9448;DHT22;4762;48.128;11.376;2024-02-26T10:10:22;12.10;49.60
9448;DHT22;4762;48.128;11.376;2024-02-26T10:12:25;12.40;48.40
9448;DHT22;4762;48.128;11.376;2024-02-26T10:14:29;12.90;47.50
9448;DHT22;4762;48.128;11.376;2024-02-26T10:16:31;12.60;47.00
9448;DHT22;4762;48.128;11.376;2024-02-26T10:18:44;13.10;46.70
9448;DHT22;4762;48.128;11.376;2024-02-26T10:23:04;13.00;46.20
9448;DHT22;4762;48.128;11.376;2024-02-26T10:25:06;13.10;45.70
9448;DHT22;4762;48.128;11.376;2024-02-26T10:27:09;12.70;44.80
9448;DHT22;4762;48.128;11.376;2024-02-26T10:29:11;12.50;46.00
9448;DHT22;4762;48.128;11.376;2024-02-26T10:31:14;12.80;43.00
9448;DHT22;4762;48.128;11.376;2024-02-26T10:33:15;12.70;43.80
9448;DHT22;4762;48.128;11.376;2024-02-26T10:35:19;12.60;43.30
9448;DHT22;4762;48.128;11.376;2024-02-26T10:37:23;13.10;41.30
9448;DHT22;4762;48.128;11.376;2024-02-26T10:39:25;13.10;41.60
9448;DHT22;4762;48.128;11.376;2024-02-26T10:41:27;13.10;40.80
9448;DHT22;4762;48.128;11.376;2024-02-26T10:43:29;13.10;40.90
9448;DHT22;4762;48.128;11.376;2024-02-26T10:45:32;13.10;41.40
9448;DHT22;4762;48.128;11.376;2024-02-26T10:47:37;13.00;42.20
9448;DHT22;4762;48.128;11.376;2024-02-26T10:49:44;13.30;41.10
9448;DHT22;4762;48.128;11.376;2024-02-26T10:51:42;13.20;40.80
9448;DHT22;4762;48.128;11.376;2024-02-26T10:53:43;13.50;40.80
9448;DHT22;4762;48.128;11.376;2024-02-26T10:55:53;13.30;40.70
9448;DHT22;4762;48.128;11.376;2024-02-26T10:57:53;13.40;40.60
9448;DHT22;4762;48.128;11.376;2024-02-26T10:59:55;13.50;41.00
9448;DHT22;4762;48.128;11.376;2024-02-26T11:01:57;13.60;39.50
9448;DHT22;4762;48.128;11.376;2024-02-26T11:03:59;13.90;39.40
9448;DHT22;4762;48.128;11.376;2024-02-26T11:06:02;14.10;39.90
9448;DHT22;4762;48.128;11.376;2024-02-26T11:08:04;14.90;37.00
9448;DHT22;4762;48.128;11.376;2024-02-26T11:10:07;14.60;38.00
9448;DHT22;4762;48.128;11.376;2024-02-26T11:12:11;14.10;38.70
9448;DHT22;4762;48.128;11.376;2024-02-26T11:14:13;14.20;39.50
9448;DHT22;4762;48.128;11.376;2024-02-26T11:16:18;13.80;40.10
9448;DHT22;4762;48.128;11.376;2024-02-26T11:18:20;13.70;39.50
9448;DHT22;4762;48.128;11.376;2024-02-26T11:20:23;13.50;40.30
9448;DHT22;4762;48.128;11.376;2024-02-26T11:22:26;13.60;40.50
9448;DHT22;4762;48.128;11.376;2024-02-26T11:24:28;13.80;40.10
9448;DHT22;4762;48.128;11.376;2024-02-26T11:26:30;14.40;39.20
9448;DHT22;4762;48.128;11.376;2024-02-26T11:28:33;15.10;37.40
9448;DHT22;4762;48.128;11.376;2024-02-26T11:30:35;15.00;36.00
9448;DHT22;4762;48.128;11.376;2024-02-26T11:32:37;15.10;36.30
9448;DHT22;4762;48.128;11.376;2024-02-26T11:34:39;16.10;35.60
9448;DHT22;4762;48.128;11.376;2024-02-26T11:36:42;16.30;34.70
9448;DHT22;4762;48.128;11.376;2024-02-26T11:38:44;16.60;34.80
9448;DHT22;4762;48.128;11.376;2024-02-26T11:40:46;17.20;33.30
9448;DHT22;4762;48.128;11.376;2024-02-26T11:42:48;16.80;33.20
9448;DHT22;4762;48.128;11.376;2024-02-26T11:44:51;16.90;33.00
9448;DHT22;4762;48.128;11.376;2024-02-26T11:46:53;17.20;32.30
9448;DHT22;4762;48.128;11.376;2024-02-26T11:48:58;17.50;32.00
9448;DHT22;4762;48.128;11.376;2024-02-26T11:51:00;17.10;32.60
9448;DHT22;4762;48.128;11.376;2024-02-26T11:53:23;16.80;32.60
9448;DHT22;4762;48.128;11.376;2024-02-26T11:55:35;16.90;33.20
9448;DHT22;4762;48.128;11.376;2024-02-26T11:57:39;16.50;32.70
9448;DHT22;4762;48.128;11.376;2024-02-26T11:59:40;17.30;31.90
9448;DHT22;4762;48.128;11.376;2024-02-26T12:01:43;17.20;32.40
9448;DHT22;4762;48.128;11.376;2024-02-26T12:03:45;17.60;31.50
9448;DHT22;4762;48.128;11.376;2024-02-26T12:05:48;17.20;31.80
9448;DHT22;4762;48.128;11.376;2024-02-26T12:07:53;16.90;31.60
9448;DHT22;4762;48.128;11.376;2024-02-26T12:10:13;15.90;33.30
9448;DHT22;4762;48.128;11.376;2024-02-26T12:11:59;15.70;34.70
9448;DHT22;4762;48.128;11.376;2024-02-26T12:14:01;16.10;33.20
9448;DHT22;4762;48.128;11.376;2024-02-26T12:16:03;16.00;34.10
9448;DHT22;4762;48.128;11.376;2024-02-26T12:18:06;16.10;34.90
9448;DHT22;4762;48.128;11.376;2024-02-26T12:20:15;16.40;32.90
9448;DHT22;4762;48.128;11.376;2024-02-26T12:22:18;16.70;33.10
9448;DHT22;4762;48.128;11.376;2024-02-26T12:24:21;16.70;33.50
9448;DHT22;4762;48.128;11.376;2024-02-26T12:26:23;16.60;32.60
9448;DHT22;4762;48.128;11.376;2024-02-26T12:28:29;16.90;32.60
9448;DHT22;4762;48.128;11.376;2024-02-26T12:30:31;17.70;30.20
9448;DHT22;4762;48.128;11.376;2024-02-26T12:32:35;17.70;31.70
9448;DHT22;4762;48.128;11.376;2024-02-26T12:34:37;17.60;31.70
9448;DHT22;4762;48.128;11.376;2024-02-26T12:36:40;16.80;32.20
9448;DHT22;4762;48.128;11.376;2024-02-26T12:38:42;16.60;33.00
9448;DHT22;4762;48.128;11.376;2024-02-26T12:40:44;16.50;32.80
9448;DHT22;4762;48.128;11.376;2024-02-26T12:42:46;16.40;33.00
9448;DHT22;4762;48.128;11.376;2024-02-26T12:44:49;16.80;31.80
9448;DHT22;4762;48.128;11.376;2024-02-26T12:46:59;16.90;32.20
9448;DHT22;4762;48.128;11.376;2024-02-26T12:48:55;16.90;32.90
9448;DHT22;4762;48.128;11.376;2024-02-26T12:50:58;17.10;31.60
9448;DHT22;4762;48.128;11.376;2024-02-26T12:53:00;16.50;32.20
9448;DHT22;4762;48.128;11.376;2024-02-26T12:55:03;15.90;33.30
9448;DHT22;4762;48.128;11.376;2024-02-26T12:57:06;16.30;33.30
9448;DHT22;4762;48.128;11.376;2024-02-26T12:59:08;16.90;32.70
9448;DHT22;4762;48.128;11.376;2024-02-26T13:01:14;17.40;31.50
9448;DHT22;4762;48.128;11.376;2024-02-26T13:03:13;16.90;31.50
9448;DHT22;4762;48.128;11.376;2024-02-26T13:05:17;16.80;32.10
9448;DHT22;4762;48.128;11.376;2024-02-26T13:07:20;17.40;31.70